createdAt,value
2018-04-26T00:00:18.083Z,13.4
2018-04-26T00:01:19.728Z,15.7
2018-04-26T00:02:21.379Z,17.2
2018-04-26T00:03:23.029Z,16.1
2018-04-26T00:04:24.684Z,15.4
2018-04-26T00:05:26.329Z,18.1
2018-04-26T00:06:27.969Z,13.9
2018-04-26T00:07:29.618Z,17.6
2018-04-26T00:08:31.265Z,15.7
2018-04-26T00:09:32.911Z,15.3
2018-04-26T00:10:34.548Z,16.6
2018-04-26T00:11:36.201Z,14.0
2018-04-26T00:12:37.845Z,16.6
2018-04-26T00:13:39.495Z,15.5
2018-04-26T00:14:41.143Z,15.8
2018-04-26T00:15:42.787Z,16.4
2018-04-26T00:16:44.444Z,15.6
2018-04-26T00:17:46.120Z,18.9
2018-04-26T00:18:47.760Z,18.8
2018-04-26T00:19:49.403Z,14.8
2018-04-26T00:20:51.054Z,15.5
2018-04-26T00:21:52.696Z,14.8
2018-04-26T00:22:54.342Z,15.6
2018-04-26T00:23:55.995Z,17.6
2018-04-26T00:24:57.630Z,15.0
2018-04-26T00:25:59.281Z,15.6
2018-04-26T00:27:00.934Z,20.4
2018-04-26T00:28:02.650Z,17.1
2018-04-26T00:29:04.306Z,17.5
2018-04-26T00:30:05.946Z,16.0
2018-04-26T00:31:07.596Z,17.5
2018-04-26T00:32:09.241Z,15.5
2018-04-26T00:33:10.887Z,15.3
2018-04-26T00:34:12.530Z,17.1
2018-04-26T00:35:14.179Z,15.9
2018-04-26T00:36:15.822Z,17.3
2018-04-26T00:37:17.469Z,17.1
2018-04-26T00:38:19.148Z,14.9
2018-04-26T00:39:20.797Z,15.5
2018-04-26T00:40:22.447Z,15.5
2018-04-26T00:41:24.092Z,17.6
2018-04-26T00:42:25.744Z,19.7
2018-04-26T00:43:29.745Z,16.1
2018-04-26T00:44:31.387Z,16.6
2018-04-26T00:45:33.149Z,20.0
2018-04-26T00:46:34.794Z,14.7
2018-04-26T00:47:36.441Z,15.5
2018-04-26T00:48:38.121Z,12.8
2018-04-26T00:49:39.763Z,13.5
2018-04-26T00:50:41.409Z,13.9
2018-04-26T00:51:43.061Z,14.8
2018-04-26T00:52:44.703Z,14.4
2018-04-26T00:53:46.358Z,12.1
2018-04-26T00:54:48.009Z,10.3
2018-04-26T00:55:49.653Z,13.0
2018-04-26T00:56:51.311Z,13.3
2018-04-26T00:57:52.958Z,14.3
2018-04-26T00:58:54.597Z,13.3
2018-04-26T00:59:56.246Z,13.0
2018-04-26T01:00:58.021Z,11.1
2018-04-26T01:01:59.660Z,13.6
2018-04-26T01:03:01.308Z,10.9
2018-04-26T01:04:02.949Z,14.5
2018-04-26T01:05:04.594Z,14.6
2018-04-26T01:06:06.240Z,14.7
2018-04-26T01:07:07.882Z,15.0
2018-04-26T01:08:09.530Z,14.0
2018-04-26T01:09:11.184Z,15.6
2018-04-26T01:10:12.839Z,13.4
2018-04-26T01:11:14.484Z,14.2
2018-04-26T01:12:16.123Z,13.7
2018-04-26T01:13:17.783Z,12.5
2018-04-26T01:14:19.433Z,13.8
2018-04-26T01:15:21.075Z,11.6
2018-04-26T01:16:22.721Z,10.9
2018-04-26T01:17:24.378Z,10.1
2018-04-26T01:18:26.029Z,12.5
2018-04-26T01:19:27.663Z,13.9
2018-04-26T01:20:29.312Z,13.0
2018-04-26T01:21:30.960Z,12.0
2018-04-26T01:22:32.601Z,13.4
2018-04-26T01:23:34.240Z,12.8
2018-04-26T01:24:35.892Z,11.5
2018-04-26T01:25:37.549Z,11.1
2018-04-26T01:26:39.186Z,16.2
2018-04-26T01:27:40.829Z,14.3
2018-04-26T01:28:42.468Z,12.4
2018-04-26T01:29:44.123Z,14.3
2018-04-26T01:30:45.792Z,12.3
2018-04-26T01:31:47.447Z,14.9
2018-04-26T01:32:49.086Z,11.3
2018-04-26T01:33:50.730Z,13.1
2018-04-26T01:34:52.377Z,11.9
2018-04-26T01:35:54.020Z,13.7
2018-04-26T01:36:55.673Z,10.7
2018-04-26T01:37:57.329Z,11.0
2018-04-26T01:38:58.977Z,12.8
2018-04-26T01:40:00.621Z,10.0
2018-04-26T01:41:02.263Z,11.6
2018-04-26T01:42:03.912Z,9.2
2018-04-26T01:43:05.614Z,10.1
2018-04-26T01:44:07.258Z,11.0
2018-04-26T01:45:08.928Z,7.7
2018-04-26T01:46:10.571Z,11.8
2018-04-26T01:47:12.215Z,10.5
2018-04-26T01:48:13.876Z,9.2
2018-04-26T01:49:15.518Z,14.6
2018-04-26T01:50:17.162Z,17.0
2018-04-26T01:51:18.821Z,12.2
2018-04-26T01:52:20.467Z,11.7
2018-04-26T01:53:22.115Z,15.0
2018-04-26T01:54:23.767Z,11.4
2018-04-26T01:55:25.412Z,9.9
2018-04-26T02:02:02.290Z,4.9
2018-04-26T02:03:03.935Z,10.6
2018-04-26T02:04:55.861Z,9.4
2018-04-26T02:05:57.504Z,8.5
2018-04-26T02:07:49.414Z,11.5
2018-04-26T02:08:51.071Z,13.2
2018-04-26T02:10:42.999Z,7.8
2018-04-26T02:11:44.634Z,8.7
2018-04-26T02:13:36.573Z,8.4
2018-04-26T02:14:38.213Z,8.5
2018-04-26T02:16:30.149Z,7.7
2018-04-26T02:17:31.790Z,7.6
2018-04-26T02:18:33.446Z,11.7
2018-04-26T02:19:35.106Z,13.4
2018-04-26T02:20:36.746Z,9.4
2018-04-26T02:21:38.393Z,8.9
2018-04-26T02:22:40.043Z,8.1
2018-04-26T02:23:41.688Z,10.7
2018-04-26T02:24:43.344Z,14.2
2018-04-26T02:25:44.996Z,12.0
2018-04-26T02:26:46.645Z,17.4
2018-04-26T02:27:48.281Z,10.2
2018-04-26T02:28:49.929Z,12.9
2018-04-26T02:29:51.585Z,10.0
2018-04-26T02:30:53.238Z,7.4
2018-04-26T02:31:54.885Z,10.1
2018-04-26T02:32:56.545Z,18.7
2018-04-26T02:33:58.190Z,13.9
2018-04-26T02:34:59.838Z,14.8
2018-04-26T02:36:01.529Z,16.5
2018-04-26T02:37:03.179Z,15.9
2018-04-26T02:38:04.824Z,12.6
2018-04-26T02:39:06.483Z,13.7
2018-04-26T02:40:08.121Z,9.4
2018-04-26T02:41:09.778Z,11.4
2018-04-26T02:42:11.409Z,15.9
2018-04-26T02:43:13.105Z,10.6
2018-04-26T02:44:14.755Z,12.7
2018-04-26T02:45:16.406Z,13.3
2018-04-26T02:46:18.057Z,16.9
2018-04-26T02:47:19.701Z,17.1
2018-04-26T02:48:21.351Z,13.5
2018-04-26T02:49:22.995Z,15.2
2018-04-26T02:50:24.643Z,15.6
2018-04-26T02:51:26.291Z,18.7
2018-04-26T02:52:27.948Z,18.0
2018-04-26T02:53:29.591Z,14.8
2018-04-26T02:54:31.243Z,11.7
2018-04-26T02:55:32.892Z,13.3
2018-04-26T02:56:34.537Z,11.9
2018-04-26T02:57:36.187Z,12.1
2018-04-26T02:58:37.885Z,18.2
2018-04-26T02:59:39.534Z,14.6
2018-04-26T03:00:41.181Z,11.6
2018-04-26T03:01:42.822Z,14.0
2018-04-26T03:02:44.470Z,22.7
2018-04-26T03:03:46.142Z,9.7
2018-04-26T03:04:47.810Z,8.6
2018-04-26T03:05:49.456Z,14.2
2018-04-26T03:06:51.116Z,17.2
2018-04-26T03:07:52.779Z,14.1
2018-04-26T03:08:54.429Z,9.9
2018-04-26T03:09:56.078Z,13.1
2018-04-26T03:10:57.731Z,10.1
2018-04-26T03:11:59.404Z,9.7
2018-04-26T03:13:01.056Z,8.3
2018-04-26T03:14:02.723Z,12.5
2018-04-26T03:15:04.374Z,10.4
2018-04-26T03:16:06.028Z,14.9
2018-04-26T03:17:07.680Z,16.8
2018-04-26T03:18:09.328Z,13.3
2018-04-26T03:19:10.982Z,13.7
2018-04-26T03:20:12.633Z,17.5
2018-04-26T03:21:14.284Z,11.7
2018-04-26T03:22:15.934Z,12.4
2018-04-26T03:23:17.583Z,12.9
2018-04-26T03:24:19.230Z,11.9
2018-04-26T03:25:20.883Z,12.1
2018-04-26T03:26:22.531Z,14.9
2018-04-26T03:27:24.187Z,11.2
2018-04-26T03:28:25.829Z,11.8
2018-04-26T03:29:27.482Z,12.6
2018-04-26T03:30:29.133Z,13.8
2018-04-26T03:31:30.788Z,10.9
2018-04-26T03:32:32.433Z,16.3
2018-04-26T03:33:34.081Z,18.7
2018-04-26T03:34:35.735Z,14.3
2018-04-26T03:35:37.387Z,20.2
2018-04-26T03:36:39.025Z,19.9
2018-04-26T03:37:40.678Z,17.0
2018-04-26T03:38:42.319Z,19.3
2018-04-26T03:39:43.970Z,16.7
2018-04-26T03:40:45.669Z,17.2
2018-04-26T03:41:47.325Z,18.3
2018-04-26T03:42:49.004Z,20.1
2018-04-26T03:43:50.649Z,11.8
2018-04-26T03:44:52.251Z,19.7
2018-04-26T03:45:53.912Z,16.6
2018-04-26T03:46:55.575Z,19.9
2018-04-26T03:47:57.232Z,12.1
2018-04-26T03:48:58.877Z,14.2
2018-04-26T03:50:00.520Z,11.6
2018-04-26T03:51:02.172Z,21.7
2018-04-26T03:52:03.823Z,14.8
2018-04-26T03:53:05.487Z,13.4
2018-04-26T03:54:07.157Z,15.3
2018-04-26T03:55:08.804Z,13.2
2018-04-26T03:56:10.461Z,17.8
2018-04-26T03:57:12.124Z,14.5
2018-04-26T03:58:13.755Z,12.6
2018-04-26T03:59:15.404Z,19.9
2018-04-26T04:00:17.065Z,10.5
2018-04-26T04:01:18.721Z,18.7
2018-04-26T04:02:20.372Z,15.5
2018-04-26T04:03:22.027Z,10.9
2018-04-26T04:04:23.673Z,13.1
2018-04-26T04:05:25.328Z,12.3
2018-04-26T04:06:27.050Z,16.4
2018-04-26T04:07:28.586Z,17.4
2018-04-26T04:08:30.234Z,17.0
2018-04-26T04:09:31.889Z,11.2
2018-04-26T04:10:33.544Z,14.8
2018-04-26T04:11:35.184Z,14.2
2018-04-26T04:12:36.836Z,14.1
2018-04-26T04:13:38.489Z,16.0
2018-04-26T04:14:40.132Z,18.1
2018-04-26T04:15:41.789Z,14.6
2018-04-26T04:16:43.449Z,15.9
2018-04-26T04:17:45.097Z,15.5
2018-04-26T04:18:46.748Z,15.5
2018-04-26T04:19:48.400Z,18.8
2018-04-26T04:20:50.042Z,14.0
2018-04-26T04:21:51.699Z,17.3
2018-04-26T04:22:53.347Z,14.7
2018-04-26T04:23:55.006Z,14.2
2018-04-26T04:24:56.672Z,16.4
2018-04-26T04:25:58.318Z,17.2
2018-04-26T04:26:59.972Z,13.3
2018-04-26T04:28:01.657Z,12.2
2018-04-26T04:29:03.284Z,15.0
2018-04-26T04:30:04.941Z,12.6
2018-04-26T04:31:06.591Z,13.0
2018-04-26T04:32:08.201Z,18.1
2018-04-26T04:33:09.854Z,12.7
2018-04-26T04:34:11.540Z,12.4
2018-04-26T04:35:13.220Z,17.1
2018-04-26T04:36:14.839Z,13.7
2018-04-26T04:37:16.498Z,12.1
2018-04-26T04:38:18.158Z,12.3
2018-04-26T04:39:19.911Z,14.8
2018-04-26T04:40:21.562Z,12.6
2018-04-26T04:41:23.207Z,15.3
2018-04-26T04:42:24.866Z,16.4
2018-04-26T04:43:26.518Z,24.2
2018-04-26T04:44:28.350Z,13.6
2018-04-26T04:45:30.005Z,17.0
2018-04-26T04:46:31.654Z,12.6
2018-04-26T04:47:33.317Z,15.8
2018-04-26T04:48:34.971Z,14.4
2018-04-26T04:49:36.619Z,16.5
2018-04-26T04:50:38.268Z,12.6
2018-04-26T04:51:39.935Z,17.7
2018-04-26T04:52:41.579Z,15.0
2018-04-26T04:53:43.337Z,13.2
2018-04-26T04:54:44.994Z,18.9
2018-04-26T04:55:46.644Z,12.2
2018-04-26T04:56:48.303Z,19.2
2018-04-26T04:57:49.967Z,17.3
2018-04-26T04:58:51.618Z,15.7
2018-04-26T04:59:53.289Z,12.4
2018-04-26T05:00:54.932Z,15.4
2018-04-26T05:01:56.631Z,16.9
2018-04-26T05:02:58.248Z,15.1
2018-04-26T05:03:59.891Z,14.6
2018-04-26T05:05:01.559Z,15.3
2018-04-26T05:06:03.214Z,16.7
2018-04-26T05:07:04.868Z,15.0
2018-04-26T05:08:06.521Z,14.3
2018-04-26T05:09:08.182Z,15.2
2018-04-26T05:10:09.834Z,14.8
2018-04-26T05:11:11.486Z,16.5
2018-04-26T05:12:13.137Z,12.3
2018-04-26T05:13:14.786Z,16.4
2018-04-26T05:14:16.451Z,18.8
2018-04-26T05:15:18.103Z,18.1
2018-04-26T05:16:19.759Z,20.8
2018-04-26T05:17:21.410Z,14.8
2018-04-26T05:18:23.058Z,13.1
2018-04-26T05:19:24.719Z,13.8
2018-04-26T05:20:26.413Z,18.9
2018-04-26T05:21:28.066Z,17.7
2018-04-26T05:22:29.714Z,14.1
2018-04-26T05:23:31.371Z,17.1
2018-04-26T05:24:33.062Z,18.1
2018-04-26T05:25:34.717Z,15.5
2018-04-26T05:26:36.368Z,20.9
2018-04-26T05:27:38.029Z,16.6
2018-04-26T05:28:39.688Z,18.9
2018-04-26T05:29:41.344Z,13.7
2018-04-26T05:30:42.999Z,19.2
2018-04-26T05:31:44.658Z,18.6
2018-04-26T05:32:46.341Z,21.0
2018-04-26T05:33:48.023Z,16.1
2018-04-26T05:34:49.650Z,15.5
2018-04-26T05:35:51.305Z,22.3
2018-04-26T05:36:52.959Z,21.0
2018-04-26T05:37:54.616Z,18.1
2018-04-26T05:38:56.263Z,20.4
2018-04-26T05:39:57.913Z,18.1
2018-04-26T05:40:59.570Z,22.2
2018-04-26T05:42:01.223Z,17.7
2018-04-26T05:43:02.888Z,21.3
2018-04-26T05:44:04.523Z,17.1
2018-04-26T05:45:06.189Z,20.8
2018-04-26T05:46:07.867Z,20.3
2018-04-26T05:47:09.538Z,17.2
2018-04-26T05:48:11.177Z,22.9
2018-04-26T05:49:12.836Z,18.5
2018-04-26T05:50:14.491Z,21.4
2018-04-26T05:51:16.150Z,20.2
2018-04-26T05:52:17.810Z,20.5
2018-04-26T05:53:19.495Z,22.0
2018-04-26T05:54:21.237Z,18.7
2018-04-26T05:55:22.904Z,27.9
2018-04-26T06:01:38.450Z,29.0
2018-04-26T06:02:40.120Z,24.5
2018-04-26T06:04:32.764Z,26.2
2018-04-26T06:05:34.412Z,23.1
2018-04-26T06:06:36.088Z,22.1
2018-04-26T06:07:37.816Z,26.4
2018-04-26T06:08:39.472Z,27.6
2018-04-26T06:09:41.129Z,21.1
2018-04-26T06:10:42.790Z,16.0
2018-04-26T06:11:44.804Z,22.7
2018-04-26T06:12:46.456Z,20.5
2018-04-26T06:13:48.110Z,21.2
2018-04-26T06:14:49.766Z,21.4
2018-04-26T06:15:51.482Z,20.7
2018-04-26T06:16:53.182Z,24.5
2018-04-26T06:17:54.793Z,19.6
2018-04-26T06:18:56.454Z,24.4
2018-04-26T06:19:58.103Z,24.9
2018-04-26T06:20:59.788Z,23.0
2018-04-26T06:22:01.444Z,24.7
2018-04-26T06:23:03.147Z,22.8
2018-04-26T06:24:04.802Z,20.8
2018-04-26T06:25:06.565Z,23.2
2018-04-26T06:26:08.127Z,23.3
2018-04-26T06:27:09.782Z,20.0
2018-04-26T06:28:11.436Z,22.2
2018-04-26T06:29:13.236Z,25.0
2018-04-26T06:30:14.940Z,20.8
2018-04-26T06:31:16.595Z,20.8
2018-04-26T06:32:18.334Z,23.4
2018-04-26T06:33:19.993Z,19.9
2018-04-26T06:34:21.654Z,22.9
2018-04-26T06:35:23.309Z,20.8
2018-04-26T06:36:24.973Z,20.7
2018-04-26T06:37:26.687Z,18.0
2018-04-26T06:38:28.356Z,17.4
2018-04-26T06:39:30.019Z,17.2
2018-04-26T06:40:31.682Z,18.3
2018-04-26T06:41:33.344Z,18.3
2018-04-26T06:42:35.011Z,17.4
2018-04-26T06:43:36.669Z,17.9
2018-04-26T06:44:38.344Z,22.3
2018-04-26T06:45:39.998Z,23.3
2018-04-26T06:46:41.660Z,24.9
2018-04-26T06:47:43.403Z,23.1
2018-04-26T06:48:44.988Z,16.7
2018-04-26T06:49:46.644Z,20.4
2018-04-26T06:50:48.298Z,18.6
2018-04-26T06:51:49.956Z,18.8
2018-04-26T06:52:51.616Z,13.9
2018-04-26T06:53:53.275Z,15.1
2018-04-26T06:54:54.932Z,21.3
2018-04-26T06:55:56.596Z,17.4
2018-04-26T06:56:58.249Z,15.6
2018-04-26T06:57:59.918Z,10.5
2018-04-26T06:59:01.579Z,13.5
2018-04-26T07:00:03.242Z,17.9
2018-04-26T07:01:04.903Z,14.3
2018-04-26T07:02:06.566Z,18.5
2018-04-26T07:03:08.218Z,17.3
2018-04-26T07:04:09.873Z,17.8
2018-04-26T07:05:11.525Z,11.6
2018-04-26T07:06:13.184Z,15.9
2018-04-26T07:07:14.839Z,16.8
2018-04-26T07:08:16.496Z,14.0
2018-04-26T07:09:18.165Z,12.6
2018-04-26T07:10:19.830Z,15.3
2018-04-26T07:11:21.485Z,14.0
2018-04-26T07:12:23.157Z,15.1
2018-04-26T07:13:24.819Z,15.9
2018-04-26T07:14:26.490Z,16.6
2018-04-26T07:15:28.152Z,13.5
2018-04-26T07:16:29.809Z,14.7
2018-04-26T07:17:31.488Z,17.3
2018-04-26T07:18:33.144Z,14.6
2018-04-26T07:19:34.801Z,16.2
2018-04-26T07:20:36.470Z,13.2
2018-04-26T07:21:38.131Z,13.0
2018-04-26T07:22:39.790Z,11.0
2018-04-26T07:23:41.458Z,15.5
2018-04-26T07:24:43.122Z,16.0
2018-04-26T07:25:44.786Z,17.0
2018-04-26T07:26:46.453Z,17.0
2018-04-26T07:27:48.112Z,15.6
2018-04-26T07:28:49.779Z,14.9
2018-04-26T07:29:51.451Z,13.8
2018-04-26T07:30:53.110Z,13.1
2018-04-26T07:31:54.765Z,18.3
2018-04-26T07:32:56.430Z,14.5
2018-04-26T07:33:58.091Z,13.5
2018-04-26T07:34:59.748Z,13.5
2018-04-26T07:36:01.367Z,17.7
2018-04-26T07:37:03.026Z,14.1
2018-04-26T07:38:04.693Z,15.5
2018-04-26T07:39:06.363Z,18.7
2018-04-26T07:40:08.026Z,14.8
2018-04-26T07:41:09.678Z,15.2
2018-04-26T07:42:11.331Z,11.7
2018-04-26T07:43:12.996Z,15.6
2018-04-26T07:44:14.651Z,17.3
2018-04-26T07:45:16.313Z,15.8
2018-04-26T07:46:17.968Z,11.8
2018-04-26T07:47:19.633Z,16.2
2018-04-26T07:48:21.293Z,15.8
2018-04-26T07:49:22.983Z,12.7
2018-04-26T07:50:24.642Z,11.2
2018-04-26T07:51:26.315Z,17.7
2018-04-26T07:52:27.986Z,12.1
2018-04-26T07:53:29.723Z,16.2
2018-04-26T07:54:31.385Z,15.5
2018-04-26T07:55:33.055Z,15.8
2018-04-26T07:56:34.717Z,15.7
2018-04-26T07:57:36.379Z,11.2
2018-04-26T07:58:38.064Z,13.5
2018-04-26T07:59:39.735Z,13.7
2018-04-26T08:00:41.397Z,15.3
2018-04-26T08:01:43.126Z,9.9
2018-04-26T08:02:44.731Z,15.4
2018-04-26T08:03:46.422Z,13.6
2018-04-26T08:04:48.087Z,14.2
2018-04-26T08:05:49.772Z,13.9
2018-04-26T08:06:51.433Z,16.0
2018-04-26T08:07:53.096Z,17.1
2018-04-26T08:08:54.749Z,15.6
2018-04-26T08:09:56.421Z,15.7
2018-04-26T08:10:58.077Z,12.6
2018-04-26T08:11:59.743Z,14.5
2018-04-26T08:13:01.421Z,14.2
2018-04-26T08:14:03.079Z,13.6
2018-04-26T08:15:04.744Z,15.3
2018-04-26T08:16:06.413Z,10.6
2018-04-26T08:17:08.074Z,8.5
2018-04-26T08:18:09.736Z,9.6
2018-04-26T08:19:11.386Z,9.0
2018-04-26T08:20:13.061Z,7.0
2018-04-26T08:21:14.716Z,6.1
2018-04-26T08:22:16.373Z,7.3
2018-04-26T08:23:18.035Z,8.8
2018-04-26T08:24:19.696Z,5.9
2018-04-26T08:25:21.394Z,5.3
2018-04-26T08:26:23.067Z,5.5
2018-04-26T08:27:24.725Z,8.8
2018-04-26T08:28:26.381Z,5.6
2018-04-26T08:29:28.042Z,4.5
2018-04-26T08:30:29.710Z,6.1
2018-04-26T08:31:31.365Z,4.4
2018-04-26T08:32:33.037Z,4.2
2018-04-26T08:33:34.689Z,4.8
2018-04-26T08:34:36.349Z,3.7
2018-04-26T08:35:38.012Z,3.7
2018-04-26T08:36:39.672Z,4.1
2018-04-26T08:37:41.329Z,6.6
2018-04-26T08:38:42.985Z,5.5
2018-04-26T08:39:44.660Z,4.6
2018-04-26T08:40:46.358Z,6.1
2018-04-26T08:41:48.024Z,6.0
2018-04-26T08:42:49.682Z,9.0
2018-04-26T08:43:51.340Z,6.9
2018-04-26T08:44:53.000Z,7.9
2018-04-26T08:45:54.664Z,7.4
2018-04-26T08:46:56.326Z,6.6
2018-04-26T08:47:57.985Z,5.4
2018-04-26T08:48:59.638Z,5.8
2018-04-26T08:50:01.337Z,9.6
2018-04-26T08:51:03.099Z,5.2
2018-04-26T08:52:04.746Z,6.6
2018-04-26T08:53:06.410Z,5.2
2018-04-26T08:54:08.091Z,7.3
2018-04-26T08:55:09.751Z,6.2
2018-04-26T08:56:11.423Z,5.9
2018-04-26T08:57:13.083Z,5.3
2018-04-26T08:58:14.748Z,7.8
2018-04-26T08:59:16.458Z,6.7
2018-04-26T09:00:18.053Z,7.6
2018-04-26T09:01:20.042Z,6.3
2018-04-26T09:02:21.686Z,5.3
2018-04-26T09:03:23.341Z,5.9
2018-04-26T09:04:24.999Z,5.1
2018-04-26T09:05:26.660Z,7.2
2018-04-26T09:06:28.327Z,4.5
2018-04-26T09:07:29.976Z,5.5
2018-04-26T09:08:31.759Z,5.4
2018-04-26T09:09:33.514Z,6.4
2018-04-26T09:10:35.181Z,5.3
2018-04-26T09:11:36.971Z,6.4
2018-04-26T09:12:39.097Z,4.0
2018-04-26T09:13:40.762Z,6.7
2018-04-26T09:14:42.436Z,5.0
2018-04-26T09:15:44.220Z,5.2
2018-04-26T09:16:45.888Z,5.1
2018-04-26T09:17:47.563Z,6.2
2018-04-26T09:18:49.228Z,4.5
2018-04-26T09:19:50.949Z,6.4
2018-04-26T09:20:52.617Z,6.8
2018-04-26T09:21:54.330Z,5.1
2018-04-26T09:22:56.094Z,5.3
2018-04-26T09:23:57.768Z,6.6
2018-04-26T09:24:59.431Z,7.1
2018-04-26T09:26:01.100Z,10.1
2018-04-26T09:27:02.782Z,8.6
2018-04-26T09:28:04.440Z,9.0
2018-04-26T09:29:06.102Z,8.2
2018-04-26T09:30:07.848Z,6.6
2018-04-26T09:31:09.445Z,9.1
2018-04-26T09:32:11.110Z,8.8
2018-04-26T09:33:12.940Z,11.9
2018-04-26T09:34:14.605Z,9.2
2018-04-26T09:35:16.257Z,10.0
2018-04-26T09:36:17.925Z,14.7
2018-04-26T09:37:19.579Z,9.7
2018-04-26T09:38:21.261Z,10.0
2018-04-26T09:39:22.989Z,9.4
2018-04-26T09:40:24.653Z,9.6
2018-04-26T09:41:26.316Z,8.4
2018-04-26T09:42:27.982Z,8.1
2018-04-26T09:43:29.667Z,7.1
2018-04-26T09:44:31.322Z,7.3
2018-04-26T09:45:32.988Z,8.4
2018-04-26T09:46:34.659Z,10.5
2018-04-26T09:47:36.324Z,8.4
2018-04-26T09:48:38.044Z,7.9
2018-04-26T09:49:39.655Z,8.8
2018-04-26T09:50:41.316Z,12.4
2018-04-26T09:51:42.985Z,9.7
2018-04-26T09:52:44.652Z,11.4
2018-04-26T09:53:46.435Z,9.6
2018-04-26T09:54:48.117Z,10.9
2018-04-26T10:01:12.083Z,15.3
2018-04-26T10:02:13.816Z,15.1
2018-04-26T10:03:15.518Z,17.8
2018-04-26T10:04:17.179Z,17.1
2018-04-26T10:05:18.893Z,13.3
2018-04-26T10:06:20.546Z,20.7
2018-04-26T10:07:22.204Z,17.8
2018-04-26T10:08:23.947Z,18.4
2018-04-26T10:09:25.681Z,17.6
2018-04-26T10:10:27.332Z,19.1
2018-04-26T10:11:29.005Z,12.3
2018-04-26T10:12:30.662Z,15.6
2018-04-26T10:13:32.319Z,17.5
2018-04-26T10:14:34.081Z,16.3
2018-04-26T10:15:35.818Z,16.1
2018-04-26T10:16:37.513Z,17.6
2018-04-26T10:17:39.175Z,12.9
2018-04-26T10:18:40.927Z,11.9
2018-04-26T10:19:42.581Z,14.0
2018-04-26T10:20:44.244Z,14.4
2018-04-26T10:21:45.930Z,11.6
2018-04-26T10:22:47.589Z,13.6
2018-04-26T10:23:49.252Z,13.9
2018-04-26T10:24:50.919Z,14.1
2018-04-26T10:25:52.568Z,13.3
2018-04-26T10:26:54.220Z,15.5
2018-04-26T10:27:55.887Z,12.6
2018-04-26T10:28:57.550Z,14.5
2018-04-26T10:29:59.241Z,15.8
2018-04-26T10:31:00.913Z,15.0
2018-04-26T10:32:02.570Z,21.8
2018-04-26T10:33:04.237Z,18.0
2018-04-26T10:34:05.899Z,14.5
2018-04-26T10:35:07.563Z,12.6
2018-04-26T10:36:09.222Z,14.9
2018-04-26T10:37:10.914Z,11.9
2018-04-26T10:38:12.571Z,11.3
2018-04-26T10:39:14.241Z,12.3
2018-04-26T10:40:15.903Z,14.5
2018-04-26T10:41:17.570Z,13.8
2018-04-26T10:42:19.240Z,12.8
2018-04-26T10:43:21.085Z,11.6
2018-04-26T10:44:22.963Z,12.2
2018-04-26T10:45:24.596Z,13.2
2018-04-26T10:46:26.400Z,16.3
2018-04-26T10:47:28.270Z,16.5
2018-04-26T10:48:29.985Z,12.0
2018-04-26T10:49:31.653Z,11.7
2018-04-26T10:50:33.333Z,13.2
2018-04-26T10:51:35.016Z,14.7
2018-04-26T10:52:36.676Z,13.4
2018-04-26T10:53:38.337Z,13.8
2018-04-26T10:54:40.012Z,10.9
2018-04-26T10:55:41.725Z,16.8
2018-04-26T10:56:43.403Z,11.5
2018-04-26T10:57:45.088Z,13.2
2018-04-26T10:58:46.774Z,11.2
2018-04-26T10:59:48.457Z,13.2
2018-04-26T11:00:50.124Z,14.6
2018-04-26T11:01:51.801Z,15.2
2018-04-26T11:02:53.608Z,15.4
2018-04-26T11:03:55.100Z,13.9
2018-04-26T11:04:56.774Z,12.6
2018-04-26T11:05:58.438Z,16.2
2018-04-26T11:07:00.110Z,12.1
2018-04-26T11:08:01.773Z,12.2
2018-04-26T11:09:03.446Z,13.3
2018-04-26T11:10:05.184Z,8.4
2018-04-26T11:11:06.854Z,11.0
2018-04-26T11:12:08.531Z,9.4
2018-04-26T11:13:10.198Z,13.1
2018-04-26T11:14:11.862Z,12.6
2018-04-26T11:15:13.530Z,13.3
2018-04-26T11:16:15.203Z,11.5
2018-04-26T11:17:16.925Z,15.9
2018-04-26T11:18:18.492Z,10.7
2018-04-26T11:19:20.173Z,9.3
2018-04-26T11:20:21.846Z,14.6
2018-04-26T11:21:23.532Z,13.0
2018-04-26T11:22:25.184Z,11.8
2018-04-26T11:23:26.868Z,9.9
2018-04-26T11:24:28.616Z,9.4
2018-04-26T11:25:30.214Z,13.0
2018-04-26T11:26:31.892Z,12.3
2018-04-26T11:27:33.563Z,12.2
2018-04-26T11:28:35.232Z,14.5
2018-04-26T11:29:36.901Z,12.7
2018-04-26T11:30:38.647Z,12.7
2018-04-26T11:31:40.312Z,12.4
2018-04-26T11:32:41.991Z,11.9
2018-04-26T11:33:44.229Z,7.2
2018-04-26T11:34:45.918Z,12.9
2018-04-26T11:35:47.592Z,11.5
2018-04-26T11:36:49.257Z,10.4
2018-04-26T11:37:50.925Z,13.7
2018-04-26T11:38:52.714Z,10.0
2018-04-26T11:39:54.383Z,11.6
2018-04-26T11:40:56.044Z,12.8
2018-04-26T11:41:57.709Z,11.2
2018-04-26T11:42:59.373Z,17.0
2018-04-26T11:44:01.355Z,10.3
2018-04-26T11:45:02.951Z,6.7
2018-04-26T11:46:04.622Z,9.5
2018-04-26T11:47:06.359Z,9.0
2018-04-26T11:48:08.067Z,13.3
2018-04-26T11:49:09.725Z,11.8
2018-04-26T11:50:11.397Z,12.3
2018-04-26T11:51:13.075Z,13.4
2018-04-26T11:52:14.736Z,11.7
2018-04-26T11:53:16.374Z,14.6
2018-04-26T11:54:18.053Z,10.4
2018-04-26T11:55:19.728Z,8.7
2018-04-26T11:56:21.466Z,12.6
2018-04-26T11:57:23.025Z,13.3
2018-04-26T11:58:24.692Z,13.8
2018-04-26T11:59:26.358Z,12.7
2018-04-26T12:00:28.024Z,10.8
2018-04-26T12:01:29.687Z,10.0
2018-04-26T12:02:31.452Z,13.5
2018-04-26T12:03:33.100Z,12.9
2018-04-26T12:04:34.771Z,14.2
2018-04-26T12:05:36.434Z,12.3
2018-04-26T12:06:38.437Z,9.7
2018-04-26T12:07:40.153Z,10.7
2018-04-26T12:08:41.772Z,9.4
2018-04-26T12:09:43.444Z,11.7
2018-04-26T12:10:45.119Z,9.4
2018-04-26T12:11:46.870Z,9.4
2018-04-26T12:12:48.532Z,16.5
2018-04-26T12:13:50.194Z,14.5
2018-04-26T12:14:51.875Z,9.9
2018-04-26T12:15:53.553Z,12.7
2018-04-26T12:16:55.218Z,12.3
2018-04-26T12:17:57.798Z,7.8
2018-04-26T12:18:59.177Z,9.2
2018-04-26T12:20:00.835Z,10.3
2018-04-26T12:21:02.530Z,7.7
2018-04-26T12:22:04.453Z,9.5
2018-04-26T12:23:06.547Z,10.1
2018-04-26T12:24:08.376Z,11.8
2018-04-26T12:25:09.949Z,9.4
2018-04-26T12:26:11.616Z,8.8
2018-04-26T12:27:13.277Z,8.3
2018-04-26T12:28:14.951Z,8.6
2018-04-26T12:29:16.635Z,10.2
2018-04-26T12:30:18.246Z,11.7
2018-04-26T12:31:19.915Z,11.8
2018-04-26T12:32:21.583Z,12.5
2018-04-26T12:33:23.256Z,8.2
2018-04-26T12:34:24.951Z,13.5
2018-04-26T12:35:26.619Z,9.6
2018-04-26T12:36:28.293Z,10.9
2018-04-26T12:37:29.957Z,7.6
2018-04-26T12:38:31.628Z,8.3
2018-04-26T12:39:33.315Z,6.3
2018-04-26T12:40:34.982Z,10.9
2018-04-26T12:41:36.677Z,8.0
2018-04-26T12:42:38.336Z,13.2
2018-04-26T12:43:40.000Z,9.4
2018-04-26T12:44:41.683Z,7.8
2018-04-26T12:45:43.340Z,8.0
2018-04-26T12:46:45.013Z,10.4
2018-04-26T12:47:46.691Z,9.7
2018-04-26T12:48:48.359Z,7.9
2018-04-26T12:49:50.019Z,7.4
2018-04-26T12:50:51.696Z,7.7
2018-04-26T12:51:53.367Z,12.3
2018-04-26T12:52:55.064Z,7.2
2018-04-26T12:53:56.730Z,7.1
2018-04-26T12:54:58.404Z,9.4
2018-04-26T12:56:00.069Z,7.9
2018-04-26T12:57:01.739Z,9.0
2018-04-26T12:58:03.427Z,12.2
2018-04-26T12:59:05.074Z,11.1
2018-04-26T13:00:06.749Z,8.5
2018-04-26T13:01:08.412Z,8.6
2018-04-26T13:02:10.079Z,10.2
2018-04-26T13:03:11.739Z,9.2
2018-04-26T13:04:13.416Z,7.6
2018-04-26T13:05:15.082Z,11.2
2018-04-26T13:06:16.741Z,9.7
2018-04-26T13:07:18.410Z,13.6
2018-04-26T13:08:20.080Z,9.5
2018-04-26T13:09:21.749Z,7.3
2018-04-26T13:10:23.423Z,11.3
2018-04-26T13:11:25.083Z,10.7
2018-04-26T13:12:26.751Z,9.0
2018-04-26T13:13:28.416Z,9.6
2018-04-26T13:14:30.088Z,12.1
2018-04-26T13:15:31.753Z,8.8
2018-04-26T13:16:33.422Z,8.0
2018-04-26T13:17:35.134Z,7.2
2018-04-26T13:18:36.767Z,9.9
2018-04-26T13:19:38.443Z,7.6
2018-04-26T13:20:40.116Z,8.0
2018-04-26T13:21:41.787Z,8.6
2018-04-26T13:22:43.504Z,10.9
2018-04-26T13:23:45.188Z,10.3
2018-04-26T13:24:46.846Z,11.5
2018-04-26T13:25:48.543Z,7.6
2018-04-26T13:26:50.216Z,8.5
2018-04-26T13:27:51.880Z,6.7
2018-04-26T13:28:53.693Z,6.9
2018-04-26T13:29:55.470Z,10.8
2018-04-26T13:30:57.005Z,6.8
2018-04-26T13:31:58.681Z,9.1
2018-04-26T13:33:00.353Z,8.5
2018-04-26T13:34:02.020Z,6.9
2018-04-26T13:35:03.690Z,6.3
2018-04-26T13:36:05.353Z,7.8
2018-04-26T13:37:07.020Z,7.8
2018-04-26T13:38:08.688Z,8.7
2018-04-26T13:39:10.361Z,9.9
2018-04-26T13:40:12.035Z,8.1
2018-04-26T13:41:13.697Z,10.2
2018-04-26T13:42:15.368Z,8.4
2018-04-26T13:43:17.032Z,10.6
2018-04-26T13:44:18.698Z,6.4
2018-04-26T13:45:20.385Z,10.9
2018-04-26T13:46:22.121Z,11.0
2018-04-26T13:47:23.720Z,10.6
2018-04-26T13:48:27.238Z,10.4
2018-04-26T13:49:28.906Z,10.7
2018-04-26T13:50:30.573Z,10.0
2018-04-26T13:51:32.242Z,7.6
2018-04-26T13:52:33.928Z,9.1
2018-04-26T13:53:35.626Z,6.7
2018-04-26T13:54:37.294Z,10.9
2018-04-26T13:55:38.964Z,6.3
2018-04-26T14:02:01.009Z,12.9
2018-04-26T14:03:02.677Z,9.1
2018-04-26T14:04:54.632Z,8.6
2018-04-26T14:05:56.399Z,8.9
2018-04-26T14:07:48.226Z,8.1
2018-04-26T14:08:50.287Z,7.0
2018-04-26T14:09:51.959Z,10.5
2018-04-26T14:10:53.622Z,6.7
2018-04-26T14:11:55.310Z,7.3
2018-04-26T14:12:57.097Z,8.5
2018-04-26T14:13:58.745Z,11.0
2018-04-26T14:15:00.410Z,8.1
2018-04-26T14:16:02.088Z,10.6